Time;durP1;ratioP1;P1;durP2;ratioP2;P2;SDS_P1;SDS_P2;PMS_P1;PMS_P2;Temp;Humidity;BMP_temperature;BMP_pressure;BME280_temperature;BME280_humidity;BME280_pressure;Samples;Min_cycle;Max_cycle;Signal;HPM_P1;HPM_P2
2021/06/30 00:00:26;;;;;;;20.40;7.03;;;;;;;15.37;100.00;99089.92;1655149;86;21024;-74
2021/06/30 00:02:53;;;;;;;11.12;7.83;;;;;;;15.33;100.00;99091.22;1654993;86;20906;-74
2021/06/30 00:05:19;;;;;;;10.88;7.80;;;;;;;15.30;100.00;99098.05;1655418;86;21093;-74
2021/06/30 00:07:46;;;;;;;12.18;7.53;;;;;;;15.29;100.00;99093.68;1655011;86;20966;-73
2021/06/30 00:10:12;;;;;;;13.48;7.83;;;;;;;15.26;100.00;99101.30;1655304;86;20965;-74
2021/06/30 00:12:39;;;;;;;15.10;7.37;;;;;;;15.25;100.00;99103.84;1655018;86;21540;-73
2021/06/30 00:15:10;;;;;;;14.98;7.67;;;;;;;15.23;100.00;99107.55;1655453;86;20894;-73
2021/06/30 00:17:36;;;;;;;13.88;8.23;;;;;;;15.19;100.00;99106.88;1655200;86;21138;-74
2021/06/30 00:20:05;;;;;;;9.63;7.17;;;;;;;15.17;100.00;99109.78;1655444;86;20921;-74
2021/06/30 00:22:33;;;;;;;12.40;6.97;;;;;;;15.15;100.00;99110.14;1655251;86;20894;-74
2021/06/30 00:25:00;;;;;;;13.98;7.87;;;;;;;15.08;100.00;99108.57;1655181;86;21013;-74
2021/06/30 00:27:27;;;;;;;22.50;8.23;;;;;;;15.05;100.00;99103.75;1655168;86;21603;-73
2021/06/30 00:29:53;;;;;;;13.30;8.20;;;;;;;15.04;100.00;99101.34;1655498;86;21094;-73
2021/06/30 00:32:19;;;;;;;15.32;8.48;;;;;;;15.02;100.00;99098.94;1655188;86;20941;-74
2021/06/30 00:34:47;;;;;;;15.23;9.43;;;;;;;15.02;100.00;99096.78;1655164;86;20961;-74
2021/06/30 00:37:14;;;;;;;15.75;9.48;;;;;;;15.00;100.00;99097.72;1655132;86;20974;-74
2021/06/30 00:39:41;;;;;;;16.25;9.08;;;;;;;14.97;100.00;99095.66;1655217;86;21021;-74
2021/06/30 00:42:07;;;;;;;17.55;9.15;;;;;;;14.96;100.00;99093.48;1655280;85;21044;-74
2021/06/30 00:44:34;;;;;;;19.25;9.40;;;;;;;14.93;100.00;99092.81;1655078;86;20965;-74
2021/06/30 00:47:02;;;;;;;17.27;8.80;;;;;;;14.91;100.00;99092.36;1655549;86;21013;-74
2021/06/30 00:49:28;;;;;;;14.63;8.80;;;;;;;14.91;100.00;99088.80;1655161;86;20946;-74
2021/06/30 00:51:56;;;;;;;15.03;8.38;;;;;;;14.90;100.00;99089.38;1655292;86;21579;-75
2021/06/30 00:54:23;;;;;;;19.25;8.18;;;;;;;14.91;100.00;99091.55;1655184;86;21736;-75
2021/06/30 00:56:49;;;;;;;13.68;7.85;;;;;;;14.88;100.00;99088.12;1655359;86;21036;-74
2021/06/30 00:59:17;;;;;;;17.27;7.00;;;;;;;14.86;100.00;99099.53;1655313;86;20968;-74
2021/06/30 01:01:43;;;;;;;12.35;6.83;;;;;;;14.86;100.00;99096.77;1655413;86;21477;-74
2021/06/30 01:04:10;;;;;;;11.10;6.92;;;;;;;14.84;100.00;99088.03;1655123;86;20977;-74
2021/06/30 01:06:36;;;;;;;9.98;6.35;;;;;;;14.83;100.00;99085.84;1655437;86;21635;-74
2021/06/30 01:09:04;;;;;;;12.00;6.37;;;;;;;14.82;100.00;99088.96;1655081;86;20886;-74
2021/06/30 01:11:30;;;;;;;14.85;7.03;;;;;;;14.77;100.00;99090.02;1655490;86;21021;-74
2021/06/30 01:13:57;;;;;;;19.62;6.60;;;;;;;14.74;100.00;99094.08;1655147;86;21060;-74
2021/06/30 01:16:23;;;;;;;12.75;6.62;;;;;;;14.70;100.00;99087.07;1655524;86;20941;-74
2021/06/30 01:18:50;;;;;;;12.63;6.35;;;;;;;14.69;100.00;99090.19;1655170;86;21191;-74
2021/06/30 01:21:17;;;;;;;12.37;6.20;;;;;;;14.69;100.00;99091.56;1655369;86;21082;-74
2021/06/30 01:23:44;;;;;;;12.43;6.65;;;;;;;14.68;100.00;99080.30;1655125;86;20953;-74
2021/06/30 01:26:12;;;;;;;9.75;5.87;;;;;;;14.66;100.00;99078.46;1655221;86;21528;-74
2021/06/30 01:28:39;;;;;;;11.18;6.80;;;;;;;14.66;100.00;99077.08;1636664;86;20989;-74
2021/06/30 01:31:07;;;;;;;19.10;7.50;;;;;;;14.66;100.00;99077.08;1655206;86;21117;-74
2021/06/30 01:33:33;;;;;;;11.75;8.05;;;;;;;14.65;100.00;99069.95;1658639;86;20922;-74
2021/06/30 01:36:00;;;;;;;13.80;7.17;;;;;;;14.63;100.00;99075.02;1655082;86;21037;-74
2021/06/30 01:38:29;;;;;;;9.95;6.85;;;;;;;14.60;100.00;99077.11;1655244;86;21041;-74
2021/06/30 01:40:56;;;;;;;12.75;7.00;;;;;;;14.57;100.00;99075.06;1636599;86;20934;-74
2021/06/30 01:43:23;;;;;;;13.88;6.67;;;;;;;14.54;100.00;99078.75;1655429;86;21759;-74
2021/06/30 01:45:54;;;;;;;11.22;7.37;;;;;;;14.52;100.00;99082.44;1655063;86;20970;-74
2021/06/30 01:48:21;;;;;;;14.40;6.53;;;;;;;14.50;100.00;99080.61;1655546;86;21442;-74
2021/06/30 01:50:49;;;;;;;12.80;6.92;;;;;;;14.50;100.00;99081.99;1655103;86;20965;-74
2021/06/30 01:53:19;;;;;;;11.38;6.50;;;;;;;14.50;100.00;99079.23;1655173;86;20957;-74
2021/06/30 01:55:45;;;;;;;18.23;7.53;;;;;;;14.52;100.00;99082.44;1655226;86;21129;-73
2021/06/30 01:58:22;;;;;;;12.28;7.12;;;;;;;14.51;100.00;99079.45;1655131;86;21018;-74
2021/06/30 02:00:51;;;;;;;16.82;7.42;;;;;;;14.50;100.00;99086.14;1655166;86;20973;-74
2021/06/30 02:03:18;;;;;;;12.88;7.40;;;;;;;14.51;100.00;99077.27;1655304;86;20966;-74
2021/06/30 02:05:46;;;;;;;11.50;7.33;;;;;;;14.50;100.00;99082.56;1655110;86;20894;-74
2021/06/30 02:08:12;;;;;;;10.75;8.35;;;;;;;14.49;100.00;99082.34;1655369;85;21066;-74
2021/06/30 02:10:41;;;;;;;13.15;8.10;;;;;;;14.48;100.00;99089.02;1655176;86;21017;-74
2021/06/30 02:13:08;;;;;;;10.88;7.65;;;;;;;14.48;100.00;99084.88;1655131;86;20997;-74
2021/06/30 02:15:35;;;;;;;12.10;8.50;;;;;;;14.45;100.00;99086.97;1655097;86;20938;-74
2021/06/30 02:18:03;;;;;;;14.15;7.90;;;;;;;14.44;100.00;99089.53;1654587;86;20930;-74
2021/06/30 02:20:30;;;;;;;21.40;8.58;;;;;;;14.42;100.00;99087.13;1655118;85;21896;-74
2021/06/30 02:22:57;;;;;;;12.80;7.40;;;;;;;14.44;100.00;99089.53;1655061;85;21035;-73
2021/06/30 02:25:26;;;;;;;18.20;7.85;;;;;;;14.45;100.00;99089.16;1655131;86;20951;-73
2021/06/30 02:27:52;;;;;;;15.95;7.67;;;;;;;14.48;100.00;99094.55;1655402;85;20931;-73
2021/06/30 02:30:23;;;;;;;12.95;6.95;;;;;;;14.51;100.00;99088.31;1655119;85;20975;-75
2021/06/30 02:32:49;;;;;;;10.63;7.35;;;;;;;14.53;100.00;99097.05;1655019;86;21100;-75
2021/06/30 02:35:20;;;;;;;16.30;7.50;;;;;;;14.54;100.00;99092.56;1655248;85;21523;-74
2021/06/30 02:37:48;;;;;;;15.65;8.00;;;;;;;14.58;100.00;99091.86;1655228;85;20928;-74
2021/06/30 02:40:15;;;;;;;14.95;7.53;;;;;;;14.59;100.00;99091.50;1655282;86;21515;-75
2021/06/30 02:42:42;;;;;;;16.60;7.90;;;;;;;14.64;100.00;99092.63;1655129;86;20888;-74
2021/06/30 02:45:11;;;;;;;9.55;6.97;;;;;;;14.68;100.00;99092.72;1655095;86;21124;-74
2021/06/30 02:47:38;;;;;;;11.80;7.35;;;;;;;14.73;100.00;99088.32;1655064;85;21130;-74
2021/06/30 02:50:07;;;;;;;11.33;7.17;;;;;;;14.79;100.00;99089.67;1659230;86;20908;-74
2021/06/30 02:52:36;;;;;;;17.27;8.20;;;;;;;14.79;100.00;99082.77;1655234;85;21462;-74
2021/06/30 02:55:05;;;;;;;13.18;7.83;;;;;;;14.79;100.00;99085.52;1655131;85;20916;-73
2021/06/30 02:57:31;;;;;;;13.10;8.10;;;;;;;14.81;100.00;99088.16;1655033;86;21131;-74
2021/06/30 02:59:59;;;;;;;10.38;8.40;;;;;;;14.86;100.00;99091.23;1655070;86;20912;-74
2021/06/30 03:02:26;;;;;;;14.15;7.97;;;;;;;14.92;100.00;99093.97;1655102;86;21463;-74
2021/06/30 03:04:52;;;;;;;19.37;8.30;;;;;;;14.99;100.00;99087.82;1655118;86;20920;-73
2021/06/30 03:07:20;;;;;;;10.75;8.38;;;;;;;15.08;100.00;99096.71;1654917;86;21464;-74
2021/06/30 03:09:47;;;;;;;18.50;8.10;;;;;;;15.18;100.00;99096.18;1655065;86;21197;-74
2021/06/30 03:12:14;;;;;;;15.43;8.28;;;;;;;15.26;100.00;99095.20;1655261;86;20932;-74
2021/06/30 03:14:43;;;;;;;14.10;7.78;;;;;;;15.33;100.00;99088.45;1655135;86;20968;-73
2021/06/30 03:17:09;;;;;;;11.78;7.40;;;;;;;15.43;100.00;99101.74;1655130;85;21003;-74
2021/06/30 03:19:36;;;;;;;11.75;6.25;;;;;;;15.55;100.00;99096.69;1655434;85;20927;-74
2021/06/30 03:22:03;;;;;;;7.83;5.05;;;;;;;15.69;100.00;99111.44;1655078;86;21117;-74
2021/06/30 03:24:29;;;;;;;9.78;5.85;;;;;;;15.82;100.00;99105.42;1655048;86;20969;-73
2021/06/30 03:26:56;;;;;;;7.60;5.35;;;;;;;15.93;100.00;99101.52;1655193;86;21471;-73
2021/06/30 03:29:23;;;;;;;9.45;5.75;;;;;;;16.03;100.00;99110.64;1655142;86;20900;-73
2021/06/30 03:31:49;;;;;;;7.62;5.17;;;;;;;16.13;100.00;99103.73;1655138;85;21025;-74
2021/06/30 03:34:17;;;;;;;9.70;5.20;;;;;;;16.25;100.00;99109.09;1655030;86;21510;-74
2021/06/30 03:36:43;;;;;;;9.08;5.70;;;;;;;16.35;100.00;99102.98;1654752;86;21528;-74
2021/06/30 03:39:10;;;;;;;12.25;6.40;;;;;;;16.47;100.00;99102.83;1636401;86;20979;-74
2021/06/30 03:41:36;;;;;;;11.15;6.35;;;;;;;16.58;100.00;99106.40;1655124;86;21071;-73
2021/06/30 03:44:04;;;;;;;9.30;6.70;;;;;;;16.68;100.00;99103.87;1655139;86;20923;-74
2021/06/30 03:46:32;;;;;;;7.30;5.92;;;;;;;16.79;100.00;99107.61;1636781;86;21427;-73
2021/06/30 03:48:58;;;;;;;9.25;6.25;;;;;;;16.89;100.00;99103.44;1655043;86;20952;-74
2021/06/30 03:51:25;;;;;;;9.13;5.33;;;;;;;16.96;100.00;99104.95;1655418;85;20963;-75
2021/06/30 03:53:52;;;;;;;9.70;5.42;;;;;;;17.06;100.00;99102.16;1655216;86;21038;-75
2021/06/30 03:56:24;;;;;;;6.12;5.10;;;;;;;17.15;100.00;99102.13;1655559;86;21015;-75
2021/06/30 03:58:46;;;;;;;8.60;6.17;;;;;;;17.26;100.00;99097.34;1654642;86;21164;-74
2021/06/30 04:01:13;;;;;;;8.33;6.22;;;;;;;17.36;100.00;99099.47;1654988;86;20999;-75
2021/06/30 04:03:43;;;;;;;10.05;6.60;;;;;;;17.45;100.00;99096.65;1655172;86;20960;-75
2021/06/30 04:06:07;;;;;;;9.43;6.45;;;;;;;17.55;100.00;99104.93;1655013;86;21534;-75
2021/06/30 04:08:35;;;;;;;9.83;5.87;;;;;;;17.64;100.00;99103.28;1655239;86;20952;-75
2021/06/30 04:11:02;;;;;;;11.97;6.30;;;;;;;17.73;100.00;99096.33;1655250;85;21945;-73
2021/06/30 04:13:28;;;;;;;7.37;6.50;;;;;;;17.84;100.00;99101.23;1655131;86;20964;-74
2021/06/30 04:15:55;;;;;;;12.23;7.15;;;;;;;17.94;100.00;99099.16;1655204;86;21459;-73
2021/06/30 04:18:21;;;;;;;11.03;6.70;;;;;;;18.03;99.92;99099.69;1655214;85;20940;-74
2021/06/30 04:20:49;;;;;;;11.08;6.53;;;;;;;18.15;99.66;99102.23;1655186;86;20963;-74
2021/06/30 04:23:15;;;;;;;10.32;6.10;;;;;;;18.25;99.40;99098.80;1655275;86;21074;-74
2021/06/30 04:25:42;;;;;;;13.95;6.10;;;;;;;18.35;99.18;99105.08;1655285;86;20880;-73
2021/06/30 04:28:08;;;;;;;8.35;5.70;;;;;;;18.46;98.84;99103.23;1655198;85;20963;-73
2021/06/30 04:30:34;;;;;;;11.50;6.50;;;;;;;18.58;98.48;99106.31;1655442;86;20896;-74
2021/06/30 04:33:01;;;;;;;12.25;7.35;;;;;;;18.69;98.25;99107.86;1655144;86;21007;-74
2021/06/30 04:35:27;;;;;;;11.48;7.25;;;;;;;18.80;98.26;99112.95;1655479;86;21721;-75
2021/06/30 04:37:54;;;;;;;6.25;5.42;;;;;;;18.90;98.05;99110.88;1655095;85;20912;-77
2021/06/30 04:40:20;;;;;;;10.48;5.47;;;;;;;19.02;97.63;99109.20;1655233;86;20996;-75
2021/06/30 04:42:46;;;;;;;9.55;5.17;;;;;;;19.13;97.42;99110.08;1655202;86;21050;-76
2021/06/30 04:45:13;;;;;;;12.05;5.70;;;;;;;19.26;96.72;99109.80;1655198;86;20912;-75
2021/06/30 04:47:40;;;;;;;5.50;4.78;;;;;;;19.37;96.25;99107.31;1655412;85;21602;-75
2021/06/30 04:50:07;;;;;;;7.17;4.72;;;;;;;19.50;95.91;99102.25;1655178;86;20971;-74
2021/06/30 04:52:33;;;;;;;7.95;5.15;;;;;;;19.61;94.23;99098.98;1655485;86;20955;-72
2021/06/30 04:55:00;;;;;;;7.92;5.35;;;;;;;19.73;93.29;99103.41;1655147;85;20999;-74
2021/06/30 04:57:27;;;;;;;9.05;5.25;;;;;;;19.86;92.72;99104.70;1651162;85;21077;-75
2021/06/30 04:59:54;;;;;;;7.50;4.92;;;;;;;19.97;92.48;99097.80;1643406;86;21513;-76
2021/06/30 05:02:20;;;;;;;7.05;5.50;;;;;;;20.09;92.01;99095.48;1655237;86;21039;-75
2021/06/30 05:04:47;;;;;;;9.60;4.97;;;;;;;20.20;91.38;99103.90;1655130;86;21627;-75
2021/06/30 05:07:13;;;;;;;9.75;5.50;;;;;;;20.31;89.94;99104.72;1655184;86;20969;-75
2021/06/30 05:09:41;;;;;;;11.88;5.15;;;;;;;20.41;89.61;99106.79;1655276;86;20994;-76
2021/06/30 05:12:08;;;;;;;7.12;4.67;;;;;;;20.52;88.64;99102.65;1655623;86;21467;-76
2021/06/30 05:14:35;;;;;;;8.20;4.25;;;;;;;20.61;88.52;99104.48;1634980;85;21025;-74
2021/06/30 05:17:01;;;;;;;5.65;4.42;;;;;;;20.73;88.77;99107.50;1612925;88;20969;-78
2021/06/30 05:19:27;;;;;;;12.50;4.62;;;;;;;20.83;88.26;99110.09;1634098;86;21521;-75
2021/06/30 05:21:54;;;;;;;5.67;4.55;;;;;;;20.92;86.75;99113.30;1655429;86;20894;-74
2021/06/30 05:24:20;;;;;;;9.93;4.87;;;;;;;21.00;85.79;99117.10;1640847;86;21956;-73
2021/06/30 05:26:49;;;;;;;8.45;4.37;;;;;;;21.09;85.61;99123.10;1612743;88;20977;-73
2021/06/30 05:29:16;;;;;;;4.42;4.00;;;;;;;21.17;83.10;99117.53;1612711;88;20973;-75
2021/06/30 05:31:43;;;;;;;8.10;4.53;;;;;;;21.22;82.99;99117.17;1612729;89;21033;-74
2021/06/30 05:34:09;;;;;;;8.38;4.25;;;;;;;21.30;83.02;99118.17;1611713;88;21072;-74
2021/06/30 05:36:35;;;;;;;12.58;5.30;;;;;;;21.35;83.74;99117.78;1611807;89;21561;-74
2021/06/30 05:39:03;;;;;;;11.12;6.10;;;;;;;21.45;84.06;99113.97;1612303;88;20957;-74
2021/06/30 05:41:29;;;;;;;8.25;5.50;;;;;;;21.55;83.83;99116.75;1612596;89;20993;-73
2021/06/30 05:43:56;;;;;;;5.80;4.92;;;;;;;21.67;84.62;99116.35;1612643;88;21488;-74
2021/06/30 05:46:24;;;;;;;8.20;5.60;;;;;;;21.79;83.85;99119.94;1612774;89;21445;-74
2021/06/30 05:48:50;;;;;;;5.75;4.67;;;;;;;21.87;82.19;99120.92;1613011;89;21104;-73
2021/06/30 05:51:17;;;;;;;9.80;5.35;;;;;;;21.94;81.09;99127.89;1612359;88;21918;-74
2021/06/30 05:53:43;;;;;;;8.38;4.35;;;;;;;22.02;80.23;99124.48;1612688;89;20918;-73
2021/06/30 05:56:10;;;;;;;8.58;4.65;;;;;;;22.10;79.60;99122.48;1612718;89;21563;-73
2021/06/30 05:58:36;;;;;;;5.83;4.25;;;;;;;22.14;77.31;99126.06;1612928;88;20880;-74
2021/06/30 06:01:02;;;;;;;6.03;4.30;;;;;;;22.18;77.32;99124.85;1612767;89;21771;-74
2021/06/30 06:03:29;;;;;;;5.10;3.98;;;;;;;22.26;76.40;99125.03;1612918;89;21013;-74
2021/06/30 06:05:56;;;;;;;4.33;3.90;;;;;;;22.34;75.68;99122.41;1612672;88;20917;-73
2021/06/30 06:08:22;;;;;;;4.45;3.87;;;;;;;22.45;74.63;99127.16;1612674;89;20889;-74
2021/06/30 06:10:48;;;;;;;5.60;3.98;;;;;;;22.55;72.36;99127.70;1612751;88;21520;-73
2021/06/30 06:13:15;;;;;;;5.90;3.27;;;;;;;22.64;72.92;99135.05;1612860;89;21551;-74
2021/06/30 06:15:41;;;;;;;12.15;3.95;;;;;;;22.72;71.44;99132.41;1612628;89;20925;-74
2021/06/30 06:18:08;;;;;;;4.90;3.70;;;;;;;22.78;69.99;99131.39;1612961;89;21056;-74
2021/06/30 06:20:36;;;;;;;5.08;3.52;;;;;;;22.83;69.25;99124.80;1612658;89;20953;-74
2021/06/30 06:23:02;;;;;;;6.97;4.00;;;;;;;22.89;69.91;99127.36;1612931;89;20917;-74
2021/06/30 06:25:29;;;;;;;5.25;3.33;;;;;;;22.99;69.69;99127.11;1612678;89;21033;-74
2021/06/30 06:27:55;;;;;;;7.72;3.55;;;;;;;23.10;69.74;99128.44;1612840;89;21000;-74
2021/06/30 06:30:26;;;;;;;4.60;3.25;;;;;;;23.18;68.47;99125.16;1612735;88;20993;-74
2021/06/30 06:32:50;;;;;;;5.47;3.67;;;;;;;23.27;65.26;99128.89;1612836;88;21012;-75
2021/06/30 06:35:17;;;;;;;4.17;3.80;;;;;;;23.36;67.06;99126.43;1612735;88;21500;-75
2021/06/30 06:37:43;;;;;;;10.00;3.75;;;;;;;23.48;67.84;99123.73;1612655;89;21549;-74
2021/06/30 06:40:11;;;;;;;5.25;3.10;;;;;;;23.60;68.32;99125.47;1612585;89;21527;-75
2021/06/30 06:42:38;;;;;;;5.15;3.62;;;;;;;23.67;64.89;99122.61;1601946;89;21445;-74
2021/06/30 06:45:09;;;;;;;4.55;3.60;;;;;;;23.74;65.29;99118.91;1612625;89;20929;-75
2021/06/30 06:47:36;;;;;;;4.42;3.90;;;;;;;23.81;64.75;99122.25;1612918;89;20977;-75
2021/06/30 06:50:04;;;;;;;5.67;4.05;;;;;;;23.87;64.67;99118.59;1612990;89;21012;-75
2021/06/30 06:52:30;;;;;;;10.70;3.72;;;;;;;23.94;65.05;99126.13;1612632;89;20957;-74
2021/06/30 06:54:57;;;;;;;6.42;4.03;;;;;;;24.04;63.50;99119.63;1612617;89;21594;-75
2021/06/30 06:57:24;;;;;;;11.03;3.87;;;;;;;24.10;62.89;99114.36;1612779;89;20961;-75
2021/06/30 06:59:50;;;;;;;5.90;3.77;;;;;;;24.16;63.41;99111.29;1612983;88;21508;-75
2021/06/30 07:02:16;;;;;;;5.42;4.28;;;;;;;24.25;63.50;99107.38;1612644;89;21168;-75
2021/06/30 07:04:43;;;;;;;4.97;3.75;;;;;;;24.31;64.19;99110.71;1612823;88;21500;-76
2021/06/30 07:07:13;;;;;;;6.22;4.15;;;;;;;24.35;64.77;99110.67;1612598;89;20965;-76
2021/06/30 07:09:39;;;;;;;6.58;3.20;;;;;;;24.37;64.62;99113.85;1612727;88;21073;-75
2021/06/30 07:12:06;;;;;;;5.95;3.62;;;;;;;24.43;64.93;99115.59;1612735;89;20929;-75
2021/06/30 07:14:34;;;;;;;6.58;3.62;;;;;;;24.53;63.63;99114.66;1612704;89;21164;-75
2021/06/30 07:17:01;;;;;;;6.20;3.85;;;;;;;24.63;64.00;99117.95;1612623;89;21544;-75
2021/06/30 07:19:28;;;;;;;7.78;3.60;;;;;;;24.74;63.27;99111.58;1612667;89;21037;-75
2021/06/30 07:21:54;;;;;;;5.45;3.15;;;;;;;24.85;61.79;99108.00;1612667;89;21464;-76
2021/06/30 07:24:20;;;;;;;6.67;3.15;;;;;;;24.91;61.19;99109.11;1612857;89;20938;-76
2021/06/30 07:26:47;;;;;;;7.42;3.35;;;;;;;24.96;58.36;99100.25;1612701;88;21503;-76
2021/06/30 07:29:13;;;;;;;5.67;3.02;;;;;;;25.05;57.64;99105.33;1612638;89;20946;-75
2021/06/30 07:31:40;;;;;;;3.70;3.00;;;;;;;25.14;58.24;99105.60;1612651;89;20968;-75
2021/06/30 07:34:06;;;;;;;3.98;3.25;;;;;;;25.27;57.85;99109.41;1612662;89;20981;-75
2021/06/30 07:36:32;;;;;;;5.85;3.67;;;;;;;25.38;58.34;99109.25;1612664;89;20918;-76
2021/06/30 07:38:59;;;;;;;5.97;3.47;;;;;;;25.42;57.67;99104.97;1612654;88;21091;-75
2021/06/30 07:41:26;;;;;;;12.55;4.15;;;;;;;25.42;60.74;99102.92;1612705;88;20917;-75
2021/06/30 07:43:52;;;;;;;6.55;3.30;;;;;;;25.47;60.28;99101.03;1612678;89;20969;-75
2021/06/30 07:46:18;;;;;;;3.75;3.15;;;;;;;25.52;61.19;99102.56;1612616;89;21005;-75
2021/06/30 07:48:45;;;;;;;6.25;3.27;;;;;;;25.60;62.94;99106.23;1612854;89;20929;-75
2021/06/30 07:51:12;;;;;;;4.70;3.70;;;;;;;25.74;64.13;99110.05;1612908;89;21491;-75
2021/06/30 07:53:40;;;;;;;3.72;3.08;;;;;;;25.90;63.68;99114.39;1612647;87;20982;-75
2021/06/30 07:56:07;;;;;;;3.72;3.20;;;;;;;26.05;61.23;99111.47;1612929;89;21456;-75
2021/06/30 07:58:34;;;;;;;14.47;3.58;;;;;;;26.14;61.28;99106.68;1629207;85;20933;-75
2021/06/30 08:01:00;;;;;;;5.37;3.45;;;;;;;26.22;58.75;99112.35;1654657;86;21588;-75
2021/06/30 08:03:27;;;;;;;8.80;4.45;;;;;;;26.25;58.69;99113.69;1654990;86;21564;-75
2021/06/30 08:05:53;;;;;;;6.65;3.87;;;;;;;26.27;58.61;99123.90;1655167;86;21726;-75
2021/06/30 08:08:20;;;;;;;8.53;2.90;;;;;;;26.36;56.46;99118.34;1655057;86;21017;-75
2021/06/30 08:10:47;;;;;;;3.85;2.80;;;;;;;26.48;54.93;99119.90;1655100;86;21497;-73
2021/06/30 08:13:13;;;;;;;3.40;3.08;;;;;;;26.55;52.55;99120.37;1655210;86;21454;-75
2021/06/30 08:15:39;;;;;;;3.58;2.65;;;;;;;26.57;51.09;99122.13;1655252;86;21477;-75
2021/06/30 08:18:06;;;;;;;5.62;3.08;;;;;;;26.59;50.80;99119.65;1654836;85;20930;-74
2021/06/30 08:20:32;;;;;;;5.33;3.20;;;;;;;26.65;50.99;99115.09;1665240;85;20903;-74
2021/06/30 08:22:58;;;;;;;3.72;2.85;;;;;;;26.81;51.79;99110.14;1682851;85;21590;-74
2021/06/30 08:25:25;;;;;;;4.00;3.60;;;;;;;27.04;50.70;99112.07;1682728;85;20943;-74
2021/06/30 08:27:53;;;;;;;4.37;2.95;;;;;;;27.23;49.54;99113.39;1682763;85;21534;-75
2021/06/30 08:30:19;;;;;;;5.17;3.02;;;;;;;27.47;49.88;99100.55;1682909;85;20932;-75
2021/06/30 08:32:47;;;;;;;3.67;2.52;;;;;;;27.82;50.20;99109.52;1682682;85;20896;-75
2021/06/30 08:35:14;;;;;;;4.20;2.77;;;;;;;28.19;46.68;99109.53;1682708;85;21455;-74
2021/06/30 08:37:44;;;;;;;2.52;2.33;;;;;;;28.43;46.42;99102.22;1682939;85;20991;-75
2021/06/30 08:40:10;;;;;;;3.55;3.05;;;;;;;28.64;47.26;99098.77;1683005;85;21021;-74
2021/06/30 08:42:37;;;;;;;4.25;2.77;;;;;;;28.91;44.60;99102.60;1667131;85;21476;-75
2021/06/30 08:45:04;;;;;;;3.58;2.50;;;;;;;29.08;44.36;99100.47;1636183;86;21076;-74
2021/06/30 08:47:35;;;;;;;4.45;2.50;;;;;;;29.23;46.61;99098.77;1654934;86;21068;-74
2021/06/30 08:50:05;;;;;;;4.95;2.70;;;;;;;29.52;47.37;99091.56;1654937;86;21037;-74
2021/06/30 08:52:34;;;;;;;2.95;2.70;;;;;;;29.77;44.82;99094.34;1655404;86;21140;-74
2021/06/30 08:55:02;;;;;;;2.87;2.33;;;;;;;30.05;42.98;99098.84;1655171;86;20981;-73
2021/06/30 08:57:29;;;;;;;2.67;2.47;;;;;;;30.21;40.32;99096.63;1655412;86;21013;-74
2021/06/30 08:59:56;;;;;;;3.30;2.25;;;;;;;30.13;42.35;99095.92;1655226;86;21476;-74
2021/06/30 09:02:23;;;;;;;2.85;2.58;;;;;;;30.23;42.35;99088.46;1655510;86;20973;-73
2021/06/30 09:04:59;;;;;;;4.53;3.00;;;;;;;30.46;41.03;99090.05;1655216;86;21116;-74
2021/06/30 09:07:17;;;;;;;3.72;2.60;;;;;;;30.62;41.53;99091.12;1654086;86;21020;-77
2021/06/30 09:09:44;;;;;;;2.67;2.17;;;;;;;30.72;40.35;99092.73;1655176;86;21507;-76
2021/06/30 09:12:12;;;;;;;5.12;2.45;;;;;;;30.87;38.94;99087.46;1655368;86;20985;-77
2021/06/30 09:14:41;;;;;;;3.70;2.70;;;;;;;30.89;39.45;99089.83;1655270;86;21041;-74
2021/06/30 09:20:01;;;;;;;4.87;2.30;;;;;;;31.00;37.61;99090.83;1655175;86;20942;-74
2021/06/30 09:22:29;;;;;;;3.62;2.40;;;;;;;31.09;38.11;99082.37;1655508;86;21453;-74
2021/06/30 09:24:57;;;;;;;4.40;2.45;;;;;;;31.14;36.85;99092.50;1655237;86;21556;-74
2021/06/30 09:27:43;;;;;;;2.95;2.20;;;;;;;31.12;36.57;99080.02;1655266;86;20965;-74
2021/06/30 09:30:12;;;;;;;4.42;2.35;;;;;;;31.11;37.33;99077.02;1636622;86;21544;-76
2021/06/30 09:33:03;;;;;;;2.58;2.27;;;;;;;31.14;36.75;99076.12;1655467;86;21053;-77
2021/06/30 09:35:32;;;;;;;5.87;2.33;;;;;;;30.90;37.33;99076.45;1655412;86;21048;-77
2021/06/30 09:38:20;;;;;;;2.80;2.50;;;;;;;30.36;38.10;99071.41;1655184;86;21022;-76
2021/06/30 09:40:47;;;;;;;4.00;2.60;;;;;;;30.15;40.16;99070.16;1655245;86;20990;-76
2021/06/30 09:43:32;;;;;;;2.90;2.20;;;;;;;30.28;40.02;99070.72;1655182;86;21156;-77
2021/06/30 09:46:03;;;;;;;3.20;2.22;;;;;;;30.54;38.41;99068.70;1651120;85;21086;-74
2021/06/30 09:48:37;;;;;;;3.37;2.25;;;;;;;30.82;36.47;99071.69;1635595;86;21241;-73
2021/06/30 09:51:05;;;;;;;3.70;2.30;;;;;;;30.93;36.70;99079.14;1641666;86;20906;-74
2021/06/30 09:53:40;;;;;;;3.42;2.27;;;;;;;31.03;37.34;99074.31;1650010;86;20985;-74
2021/06/30 09:56:11;;;;;;;4.35;2.30;;;;;;;31.15;36.69;99083.37;1638972;86;21139;-73
2021/06/30 09:58:38;;;;;;;6.40;2.35;;;;;;;31.31;36.46;99085.13;1640140;86;21089;-73
2021/06/30 10:01:18;;;;;;;5.10;2.30;;;;;;;31.44;35.30;99092.89;1642993;86;20968;-74
2021/06/30 10:03:46;;;;;;;3.08;2.25;;;;;;;31.53;34.95;99095.75;1643146;86;21025;-74
2021/06/30 10:06:36;;;;;;;3.50;2.33;;;;;;;31.60;35.83;99091.83;1650470;85;20963;-75
2021/06/30 10:09:05;;;;;;;4.28;2.30;;;;;;;31.73;35.92;99089.67;1629443;86;21119;-74
2021/06/30 10:11:34;;;;;;;2.83;2.52;;;;;;;31.67;35.24;99088.69;1648112;87;20870;-74
2021/06/30 10:14:01;;;;;;;4.75;2.58;;;;;;;31.33;35.04;99081.98;1648103;87;21018;-75
2021/06/30 10:16:28;;;;;;;3.30;2.50;;;;;;;31.19;36.15;99076.92;1647937;87;21588;-74
2021/06/30 10:18:58;;;;;;;4.10;2.52;;;;;;;30.90;35.57;99076.45;1646614;87;20958;-75
2021/06/30 10:21:27;;;;;;;2.70;2.45;;;;;;;30.46;35.56;99077.30;1647968;87;21168;-76
2021/06/30 10:23:54;;;;;;;4.30;2.40;;;;;;;30.21;36.67;99073.98;1648050;87;20970;-75
2021/06/30 10:26:21;;;;;;;5.12;2.75;;;;;;;30.33;37.61;99075.16;1648210;86;21018;-74
2021/06/30 10:28:52;;;;;;;2.75;2.40;;;;;;;30.69;37.77;99066.73;1642731;85;21511;-74
2021/06/30 10:31:19;;;;;;;3.35;2.52;;;;;;;31.07;37.32;99065.03;1648563;86;20997;-74
2021/06/30 10:34:03;;;;;;;5.00;2.50;;;;;;;31.38;35.00;99064.98;1646901;86;21549;-74
2021/06/30 10:36:56;;;;;;;3.80;2.30;;;;;;;31.43;34.38;99059.48;1648010;86;20973;-74
2021/06/30 10:39:42;;;;;;;2.03;1.83;;;;;;;31.47;35.30;99056.50;1648262;87;20969;-75
2021/06/30 10:42:37;;;;;;;2.30;1.90;;;;;;;31.47;34.85;99057.28;1648070;87;20950;-72
2021/06/30 10:45:21;;;;;;;2.55;1.70;;;;;;;31.62;33.21;99051.80;1648036;87;20930;-73
2021/06/30 10:48:05;;;;;;;5.60;2.42;;;;;;;31.68;34.14;99038.59;1647963;87;39178;-73
2021/06/30 10:50:37;;;;;;;8.45;2.15;;;;;;;31.77;32.58;99037.81;1640868;85;20933;-74
2021/06/30 10:53:12;;;;;;;4.22;2.40;;;;;;;31.81;33.29;99034.16;1624571;87;21041;-73
2021/06/30 10:55:54;;;;;;;7.10;2.45;;;;;;;31.89;32.89;99038.27;1606195;89;21053;-73
2021/06/30 10:58:24;;;;;;;5.10;2.47;;;;;;;31.90;32.93;99037.64;1606162;89;20969;-74
2021/06/30 11:01:05;;;;;;;2.90;2.27;;;;;;;31.92;34.23;99023.76;1605903;89;21811;-73
2021/06/30 11:03:53;;;;;;;6.70;2.70;;;;;;;32.16;34.63;99022.64;1605848;89;20925;-74
2021/06/30 11:06:24;;;;;;;3.87;2.10;;;;;;;32.26;34.81;99024.87;1605937;89;20926;-74
2021/06/30 11:09:09;;;;;;;3.62;2.58;;;;;;;32.34;31.58;99024.70;1605845;89;20977;-73
2021/06/30 11:11:47;;;;;;;5.70;2.30;;;;;;;32.39;31.49;99020.39;1605501;88;20890;-73
2021/06/30 11:14:15;;;;;;;2.72;2.20;;;;;;;32.43;31.65;99028.91;1606008;89;21192;-74
2021/06/30 11:16:51;;;;;;;2.15;1.72;;;;;;;32.46;31.10;99025.11;1605820;89;20957;-73
2021/06/30 11:19:25;;;;;;;3.85;2.20;;;;;;;32.49;30.95;99021.31;1605855;88;21517;-73
2021/06/30 11:21:58;;;;;;;8.13;2.77;;;;;;;32.39;31.29;99014.72;1628289;85;21045;-73
2021/06/30 11:24:47;;;;;;;6.30;2.17;;;;;;;32.18;32.15;99022.95;1606481;87;20918;-74
2021/06/30 11:27:24;;;;;;;5.85;2.27;;;;;;;32.01;32.77;99020.92;1615219;86;21213;-74
2021/06/30 11:29:58;;;;;;;3.60;2.60;;;;;;;31.75;33.15;99017.01;1661889;85;21499;-73
2021/06/30 11:32:38;;;;;;;2.80;2.42;;;;;;;31.42;33.26;99008.27;1656991;85;20983;-74
2021/06/30 11:35:20;;;;;;;2.37;2.15;;;;;;;31.19;34.31;99008.88;1671945;84;20920;-75